Time;durP1;ratioP1;P1;durP2;ratioP2;P2;SDS_P1;SDS_P2;PMS_P1;PMS_P2;Temp;Humidity;BMP_temperature;BMP_pressure;BME280_temperature;BME280_humidity;BME280_pressure;Samples;Min_cycle;Max_cycle;Signal;HPM_P1;HPM_P2
2022/07/04 04:01:23;;;;;;;10.23;9.10;;;15.70;99.90;;;;;;5534498;23;20510;-67
2022/07/04 04:06:34;;;;;;;12.60;9.27;;;15.90;99.90;;;;;;4952912;29;20532;-67
2022/07/04 04:09:01;;;;;;;10.40;8.97;;;15.90;99.90;;;;;;4957904;28;20967;-67
2022/07/04 04:11:28;;;;;;;10.93;9.60;;;15.90;99.90;;;;;;4970831;28;20971;-67
2022/07/04 04:16:33;;;;;;;9.93;8.60;;;16.00;99.90;;;;;;4965288;28;20830;-67
2022/07/04 04:19:00;;;;;;;10.37;9.33;;;16.00;99.90;;;;;;4966357;28;20476;-67
2022/07/04 04:21:26;;;;;;;10.93;9.97;;;16.00;99.90;;;;;;4969292;28;20840;-67
2022/07/04 04:23:53;;;;;;;13.73;9.10;;;16.10;99.90;;;;;;4967524;28;20468;-67
2022/07/04 04:26:20;;;;;;;10.30;8.60;;;16.10;99.90;;;;;;4968613;28;20991;-68
2022/07/04 04:28:47;;;;;;;8.87;8.13;;;16.50;99.90;;;;;;4970300;28;20467;-68
2022/07/04 04:31:14;;;;;;;7.70;7.07;;;17.30;99.90;;;;;;4965814;28;20986;-67
2022/07/04 04:33:42;;;;;;;6.43;6.03;;;18.20;99.90;;;;;;4965137;28;20829;-68
2022/07/04 04:36:09;;;;;;;7.43;5.97;;;18.90;99.90;;;;;;4967622;28;20575;-66
2022/07/04 04:38:36;;;;;;;7.93;5.53;;;19.70;99.90;;;;;;4968734;28;20951;-66
2022/07/04 04:41:03;;;;;;;5.53;5.23;;;20.20;99.90;;;;;;4970100;28;20468;-66
2022/07/04 04:43:30;;;;;;;5.20;4.90;;;20.60;99.90;;;;;;4969063;28;20463;-66
2022/07/04 04:45:57;;;;;;;4.70;4.57;;;20.70;99.90;;;;;;4967039;28;20480;-66
2022/07/04 04:48:23;;;;;;;4.40;4.20;;;21.00;99.90;;;;;;4957120;28;20491;-70
2022/07/04 04:50:51;;;;;;;4.53;4.40;;;21.50;99.90;;;;;;4970474;28;20487;-66
2022/07/04 04:53:18;;;;;;;4.40;4.20;;;21.80;99.90;;;;;;4971246;28;20520;-66
2022/07/04 04:55:45;;;;;;;3.90;3.77;;;22.20;99.90;;;;;;4967301;28;20805;-65
2022/07/04 04:58:12;;;;;;;3.50;3.40;;;22.50;99.90;;;;;;4964799;28;20475;-66
2022/07/04 05:00:38;;;;;;;3.67;3.50;;;22.50;99.90;;;;;;4969028;28;20484;-68
2022/07/04 05:03:05;;;;;;;3.20;3.10;;;22.90;99.90;;;;;;4972025;28;20508;-67
2022/07/04 05:05:32;;;;;;;4.13;3.93;;;23.20;99.90;;;;;;4974429;28;21029;-67
2022/07/04 05:08:00;;;;;;;2.87;2.87;;;23.50;99.90;;;;;;4973864;28;20480;-67
2022/07/04 05:10:27;;;;;;;3.20;3.10;;;23.60;99.90;;;;;;4974411;28;20835;-67
2022/07/04 05:12:55;;;;;;;2.60;2.50;;;23.90;99.90;;;;;;4974735;28;20458;-67
2022/07/04 05:15:21;;;;;;;2.80;2.60;;;24.20;99.90;;;;;;4970069;28;20497;-66
2022/07/04 05:17:48;;;;;;;3.27;2.93;;;24.30;99.90;;;;;;4971214;28;20458;-66
2022/07/04 05:20:15;;;;;;;2.70;2.70;;;24.40;99.90;;;;;;4968311;28;20466;-66
2022/07/04 05:22:42;;;;;;;2.93;2.63;;;24.50;99.90;;;;;;4971163;28;20462;-66
2022/07/04 05:25:10;;;;;;;2.13;2.13;;;24.60;99.90;;;;;;4968792;28;20518;-66
2022/07/04 05:27:37;;;;;;;3.53;3.23;;;25.00;99.90;;;;;;4972189;28;20472;-66
2022/07/04 05:30:04;;;;;;;2.47;2.40;;;25.30;99.90;;;;;;4970464;28;20485;-66
2022/07/04 05:32:31;;;;;;;2.13;2.13;;;25.30;99.90;;;;;;4973197;28;20468;-66
2022/07/04 05:34:58;;;;;;;2.30;2.20;;;25.30;99.90;;;;;;4972964;28;20500;-65
2022/07/04 05:37:25;;;;;;;2.50;2.40;;;25.30;99.90;;;;;;4974041;28;20493;-67
2022/07/04 05:39:51;;;;;;;2.10;2.00;;;25.40;99.90;;;;;;4971988;28;20474;-67
2022/07/04 05:42:19;;;;;;;1.23;1.23;;;25.50;99.90;;;;;;4973467;28;20492;-68
2022/07/04 05:44:46;;;;;;;1.87;1.87;;;25.50;99.90;;;;;;4966805;28;20488;-66
2022/07/04 05:47:13;;;;;;;1.50;1.40;;;25.50;99.90;;;;;;4973721;28;20470;-66
2022/07/04 05:49:40;;;;;;;2.10;1.60;;;25.30;99.90;;;;;;4979410;28;20492;-65
2022/07/04 05:52:06;;;;;;;1.73;1.30;;;25.50;99.90;;;;;;4983796;28;20469;-65
2022/07/04 05:54:33;;;;;;;1.33;1.33;;;25.50;99.90;;;;;;4970816;28;20493;-68
2022/07/04 05:57:00;;;;;;;1.43;1.33;;;25.50;99.90;;;;;;4967288;28;20471;-67
2022/07/04 05:59:29;;;;;;;2.33;1.20;;;25.30;99.90;;;;;;4972224;28;20815;-68
2022/07/04 06:01:55;;;;;;;1.60;1.40;;;25.50;99.90;;;;;;4971614;28;20575;-66
2022/07/04 06:04:22;;;;;;;1.13;0.90;;;25.70;99.90;;;;;;4971776;28;20495;-65
2022/07/04 06:06:49;;;;;;;1.40;1.03;;;25.80;99.90;;;;;;4968579;28;20470;-68
2022/07/04 06:09:15;;;;;;;1.00;1.00;;;26.00;99.90;;;;;;4969407;28;20963;-67
2022/07/04 06:11:42;;;;;;;0.77;0.77;;;26.00;99.90;;;;;;4970729;28;20490;-66
2022/07/04 06:14:09;;;;;;;1.37;0.80;;;26.20;99.90;;;;;;4973879;28;20466;-67
2022/07/04 06:16:37;;;;;;;1.43;1.10;;;26.10;99.90;;;;;;4972303;28;20962;-67
2022/07/04 06:19:04;;;;;;;0.93;0.93;;;26.30;99.90;;;;;;4972856;28;20471;-67
2022/07/04 06:21:31;;;;;;;1.10;1.10;;;26.80;99.90;;;;;;4970165;28;20476;-67
2022/07/04 06:24:02;;;;;;;2.20;0.90;;;26.90;99.10;;;;;;4970999;28;20554;-67
2022/07/04 06:26:30;;;;;;;1.63;1.53;;;26.70;99.30;;;;;;4978384;28;20462;-67
2022/07/04 06:28:58;;;;;;;1.40;0.77;;;26.60;98.80;;;;;;4977258;28;20499;-66
2022/07/04 06:31:25;;;;;;;0.90;0.90;;;27.10;98.70;;;;;;4975817;28;20497;-68
2022/07/04 06:36:42;;;;;;;0.60;0.60;;;27.50;96.50;;;;;;4981114;28;20529;-67
2022/07/04 06:39:10;;;;;;;0.90;0.90;;;27.70;95.80;;;;;;4982320;28;20472;-67
2022/07/04 06:41:38;;;;;;;1.00;0.93;;;28.10;95.60;;;;;;4970327;28;20459;-66
2022/07/04 06:44:06;;;;;;;0.83;0.83;;;28.10;94.40;;;;;;4980439;28;20466;-67
2022/07/04 06:46:34;;;;;;;0.70;0.70;;;28.20;93.80;;;;;;4976533;28;20542;-66
2022/07/04 06:49:02;;;;;;;1.37;0.60;;;28.10;93.20;;;;;;4970414;28;20472;-65
2022/07/04 06:51:29;;;;;;;0.93;0.93;;;28.20;91.90;;;;;;4972587;28;20529;-67
2022/07/04 06:53:56;;;;;;;0.97;0.97;;;28.30;91.90;;;;;;4972241;28;20470;-67
2022/07/04 06:56:23;;;;;;;0.90;0.90;;;28.40;92.10;;;;;;4973880;28;20494;-67
2022/07/04 06:58:50;;;;;;;0.87;0.87;;;28.30;91.60;;;;;;4972766;28;20573;-67
2022/07/04 07:01:17;;;;;;;1.23;0.80;;;28.60;91.60;;;;;;4969790;28;20463;-67
2022/07/04 07:03:44;;;;;;;0.80;0.73;;;28.20;91.50;;;;;;4972395;28;20819;-67
2022/07/04 07:06:12;;;;;;;1.00;1.00;;;27.90;90.80;;;;;;4973198;28;20483;-67
2022/07/04 07:08:39;;;;;;;0.80;0.80;;;27.70;91.10;;;;;;4973823;28;20801;-67
2022/07/04 07:11:18;;;;;;;0.40;0.40;;;28.00;90.80;;;;;;4972809;28;20489;-66
2022/07/04 07:13:47;;;;;;;0.80;0.63;;;28.30;90.50;;;;;;4971191;28;20474;-70
2022/07/04 07:16:14;;;;;;;1.37;0.80;;;28.70;90.50;;;;;;4970984;28;20522;-66
2022/07/04 07:18:41;;;;;;;2.43;0.80;;;28.70;90.40;;;;;;4971782;28;20494;-66
2022/07/04 07:21:08;;;;;;;1.27;0.80;;;28.80;89.20;;;;;;4971739;28;20852;-67
2022/07/04 07:23:39;;;;;;;0.90;0.90;;;28.10;90.20;;;;;;4967904;28;20466;-67
2022/07/04 07:26:05;;;;;;;1.40;1.10;;;27.80;89.80;;;;;;4967302;28;20896;-65
2022/07/04 07:28:32;;;;;;;0.63;0.63;;;27.90;89.50;;;;;;4970884;28;20471;-66
2022/07/04 07:30:59;;;;;;;0.70;0.70;;;28.00;89.40;;;;;;4971095;28;20488;-66
2022/07/04 07:33:26;;;;;;;1.10;1.00;;;28.40;89.50;;;;;;4967827;28;20471;-66
2022/07/04 07:35:53;;;;;;;2.00;0.70;;;28.40;87.70;;;;;;4969857;28;20952;-66
2022/07/04 07:38:19;;;;;;;0.70;0.70;;;27.90;88.90;;;;;;4972131;28;20467;-66
2022/07/04 07:40:47;;;;;;;1.13;0.83;;;27.30;89.60;;;;;;4970420;28;20475;-66
2022/07/04 07:43:14;;;;;;;1.40;1.40;;;26.00;91.00;;;;;;4972691;28;20585;-67
2022/07/04 07:45:41;;;;;;;2.10;0.93;;;25.00;92.20;;;;;;4969086;28;20487;-67
2022/07/04 07:48:07;;;;;;;1.47;1.10;;;24.90;92.80;;;;;;4971976;28;20881;-68
2022/07/04 07:50:34;;;;;;;0.80;0.80;;;25.50;92.40;;;;;;4967674;28;20483;-67
2022/07/04 07:53:01;;;;;;;0.77;0.73;;;26.10;92.00;;;;;;4967250;28;20478;-66
2022/07/04 07:55:28;;;;;;;3.20;1.40;;;26.60;90.90;;;;;;4967201;28;20495;-66
2022/07/04 07:57:58;;;;;;;0.80;0.80;;;26.60;90.10;;;;;;4968483;28;20474;-66
2022/07/04 08:00:25;;;;;;;2.13;1.23;;;26.40;91.20;;;;;;4969533;28;20453;-66
2022/07/04 08:05:36;;;;;;;0.77;0.77;;;26.10;90.40;;;;;;4969702;28;20491;-65
2022/07/04 08:08:03;;;;;;;0.90;0.90;;;26.10;90.60;;;;;;4967129;28;20470;-65
2022/07/04 08:10:30;;;;;;;2.53;0.70;;;26.60;91.00;;;;;;4969382;28;20569;-66
2022/07/04 08:12:58;;;;;;;1.20;0.97;;;26.50;90.70;;;;;;4969362;28;20474;-66
2022/07/04 08:15:25;;;;;;;2.00;1.17;;;26.00;91.20;;;;;;4969270;28;20514;-66
2022/07/04 08:17:53;;;;;;;0.83;0.83;;;25.50;91.60;;;;;;4952907;28;20551;-67
2022/07/04 08:20:20;;;;;;;1.13;0.70;;;25.80;92.00;;;;;;4971698;28;20475;-67
2022/07/04 08:22:46;;;;;;;0.97;0.90;;;26.20;90.20;;;;;;4970587;28;20468;-66
2022/07/04 08:25:14;;;;;;;1.10;1.10;;;26.70;90.30;;;;;;4967127;28;21093;-67
2022/07/04 08:27:41;;;;;;;1.13;1.03;;;26.80;90.60;;;;;;4969822;28;20503;-66
2022/07/04 08:30:10;;;;;;;0.60;0.60;;;26.90;90.40;;;;;;4969729;28;20475;-65
2022/07/04 08:32:37;;;;;;;0.90;0.90;;;26.30;90.80;;;;;;4962371;28;20476;-66
2022/07/04 08:35:05;;;;;;;1.10;1.10;;;25.80;90.20;;;;;;4969520;28;20491;-66
2022/07/04 08:37:31;;;;;;;0.70;0.70;;;25.30;90.90;;;;;;4971539;28;20470;-66
2022/07/04 08:39:58;;;;;;;1.17;0.83;;;25.70;91.90;;;;;;4970149;28;20878;-66
2022/07/04 08:42:27;;;;;;;1.10;1.10;;;26.00;91.30;;;;;;4967384;28;20828;-67
2022/07/04 08:44:55;;;;;;;0.90;0.90;;;25.60;91.30;;;;;;4971413;28;20491;-67
2022/07/04 08:47:25;;;;;;;0.90;0.90;;;25.00;92.00;;;;;;4969432;28;20479;-66
2022/07/04 08:49:58;;;;;;;0.70;0.70;;;24.60;92.50;;;;;;4969806;28;20475;-67
2022/07/04 08:52:33;;;;;;;0.80;0.80;;;24.40;92.60;;;;;;4970382;28;21012;-66
2022/07/04 09:00:30;;;;;;;0.70;0.70;;;24.60;92.70;;;;;;4971347;28;20469;-67
2022/07/04 09:03:03;;;;;;;1.00;1.00;;;23.90;92.20;;;;;;4968237;28;20480;-67
2022/07/04 09:05:31;;;;;;;2.00;1.00;;;23.90;92.40;;;;;;4975221;28;20557;-67
2022/07/04 09:07:59;;;;;;;0.77;0.70;;;24.40;92.30;;;;;;4975307;28;20565;-66
2022/07/04 09:10:26;;;;;;;0.80;0.80;;;25.00;92.00;;;;;;4975025;28;20594;-66
2022/07/04 09:12:53;;;;;;;2.00;0.93;;;25.30;91.90;;;;;;4974277;28;20946;-67
2022/07/04 09:15:20;;;;;;;0.80;0.80;;;25.60;91.10;;;;;;4973239;28;21028;-66
2022/07/04 09:17:47;;;;;;;0.40;0.40;;;25.60;90.60;;;;;;4972465;28;20540;-66
2022/07/04 09:20:17;;;;;;;1.20;1.00;;;25.50;90.20;;;;;;4969777;28;20888;-67
2022/07/04 09:22:44;;;;;;;1.20;0.90;;;24.90;90.80;;;;;;4972833;28;20475;-67
2022/07/04 09:25:14;;;;;;;0.80;0.80;;;24.50;91.00;;;;;;4973990;28;20482;-66
2022/07/04 09:27:44;;;;;;;0.83;0.80;;;24.60;91.70;;;;;;4972968;28;20853;-65
2022/07/04 09:30:12;;;;;;;1.33;0.90;;;24.90;91.40;;;;;;4969878;28;20887;-66
2022/07/04 09:32:41;;;;;;;0.80;0.80;;;25.00;92.00;;;;;;4964469;28;20485;-66
2022/07/04 09:35:09;;;;;;;0.70;0.70;;;24.90;91.90;;;;;;4964919;28;20538;-67
2022/07/04 09:37:39;;;;;;;0.80;0.80;;;24.50;91.20;;;;;;4965304;28;20473;-66
2022/07/04 09:40:09;;;;;;;0.63;0.63;;;24.00;90.90;;;;;;4973102;28;20498;-67
2022/07/04 09:42:38;;;;;;;0.90;0.90;;;23.90;91.20;;;;;;4972320;28;20482;-66
2022/07/04 09:45:10;;;;;;;0.80;0.80;;;24.10;91.30;;;;;;4963779;28;20487;-68
2022/07/04 09:47:38;;;;;;;1.10;0.60;;;24.20;92.10;;;;;;4972722;28;20949;-66
2022/07/04 09:50:08;;;;;;;0.97;0.97;;;24.10;92.00;;;;;;4974646;28;20467;-66
2022/07/04 09:52:51;;;;;;;0.90;0.90;;;24.10;92.20;;;;;;4972153;28;20578;-67
2022/07/04 09:55:23;;;;;;;0.80;0.80;;;24.00;91.60;;;;;;4969476;28;21020;-66
2022/07/04 09:57:50;;;;;;;0.80;0.80;;;23.70;91.30;;;;;;4985666;28;20487;-67
2022/07/04 10:00:19;;;;;;;1.07;0.70;;;23.60;91.90;;;;;;4978085;28;20464;-66
2022/07/04 10:02:46;;;;;;;1.00;1.00;;;23.70;92.10;;;;;;4968680;28;20460;-66
2022/07/04 10:05:13;;;;;;;1.40;1.33;;;23.70;92.20;;;;;;4974226;28;20487;-67
2022/07/04 10:07:43;;;;;;;1.13;1.13;;;23.90;92.10;;;;;;4974316;28;20459;-67
2022/07/04 10:10:26;;;;;;;0.80;0.80;;;23.90;91.90;;;;;;4973158;28;20578;-67
2022/07/04 10:12:55;;;;;;;1.27;1.17;;;24.10;91.80;;;;;;4968918;28;20579;-68
2022/07/04 10:15:22;;;;;;;0.90;0.90;;;24.10;91.90;;;;;;4979190;23;20496;-68
2022/07/04 10:17:49;;;;;;;1.20;0.80;;;23.60;92.00;;;;;;4936877;29;20457;-67
2022/07/04 10:20:16;;;;;;;0.80;0.80;;;23.40;92.40;;;;;;4936391;29;20469;-67
2022/07/04 10:22:43;;;;;;;0.90;0.90;;;23.30;90.90;;;;;;4950955;29;21176;-67
2022/07/04 10:25:11;;;;;;;0.70;0.70;;;23.40;90.70;;;;;;4941916;29;20484;-65
2022/07/04 10:27:39;;;;;;;1.07;0.90;;;23.60;91.00;;;;;;4950368;28;20465;-65
2022/07/04 10:30:08;;;;;;;1.10;1.00;;;23.70;91.90;;;;;;4953382;29;20461;-65
2022/07/04 10:32:37;;;;;;;1.20;1.20;;;23.80;91.90;;;;;;4952207;29;20844;-66
2022/07/04 10:35:04;;;;;;;1.30;1.20;;;24.00;91.40;;;;;;4953596;29;20484;-66
2022/07/04 10:37:59;;;;;;;1.53;1.00;;;24.00;91.50;;;;;;4954258;28;20469;-67
2022/07/04 10:40:42;;;;;;;1.20;1.20;;;24.00;91.90;;;;;;4953445;29;20973;-66
2022/07/04 10:43:54;;;;;;;0.90;0.90;;;24.10;92.30;;;;;;4951989;29;20504;-67
2022/07/04 10:46:44;;;;;;;0.93;0.90;;;24.10;91.90;;;;;;4946837;28;20577;-67
2022/07/04 10:49:20;;;;;;;1.00;1.00;;;23.90;92.30;;;;;;4953706;29;20473;-67
2022/07/04 10:51:48;;;;;;;2.43;0.90;;;23.90;92.10;;;;;;4952106;29;21002;-70
2022/07/04 10:54:17;;;;;;;1.47;0.97;;;23.90;92.00;;;;;;4953720;28;20465;-70
2022/07/04 10:56:52;;;;;;;4.60;1.10;;;23.80;90.90;;;;;;4951168;28;20488;-68
2022/07/04 10:59:22;;;;;;;0.80;0.80;;;23.80;91.40;;;;;;4954213;28;20878;-68
2022/07/04 11:01:53;;;;;;;0.70;0.70;;;23.90;91.10;;;;;;4952300;29;20519;-68
2022/07/04 11:04:48;;;;;;;1.00;1.00;;;24.00;91.50;;;;;;4953766;29;20492;-68
2022/07/04 11:07:16;;;;;;;1.00;1.00;;;24.00;91.60;;;;;;4953645;29;20941;-68
2022/07/04 11:09:43;;;;;;;0.80;0.80;;;24.20;92.10;;;;;;4953721;29;20495;-69
2022/07/04 11:12:10;;;;;;;0.63;0.63;;;24.40;91.80;;;;;;4952584;28;20492;-68
2022/07/04 11:14:39;;;;;;;0.90;0.90;;;24.30;91.70;;;;;;4953382;28;20464;-68
2022/07/04 11:17:08;;;;;;;1.20;1.20;;;24.40;91.70;;;;;;4952873;29;20500;-68
2022/07/04 11:19:35;;;;;;;0.80;0.80;;;24.30;91.50;;;;;;4953129;29;20978;-68
2022/07/04 11:22:02;;;;;;;0.70;0.70;;;24.20;91.80;;;;;;4952127;29;20465;-68
2022/07/04 11:24:29;;;;;;;0.97;0.97;;;24.20;92.10;;;;;;4953003;29;20483;-68
2022/07/04 11:26:56;;;;;;;0.80;0.73;;;24.30;92.40;;;;;;4952571;28;20480;-68
2022/07/04 11:29:23;;;;;;;1.40;0.90;;;24.30;91.80;;;;;;4951152;29;20465;-67
2022/07/04 11:31:51;;;;;;;0.80;0.80;;;24.40;91.80;;;;;;4951164;29;20484;-68
2022/07/04 11:34:20;;;;;;;0.80;0.80;;;24.70;91.50;;;;;;4949191;29;20470;-68
2022/07/04 11:36:49;;;;;;;1.03;0.90;;;24.70;91.40;;;;;;4952730;29;20507;-68
2022/07/04 11:39:19;;;;;;;0.87;0.60;;;24.70;91.80;;;;;;4952969;29;20461;-68
2022/07/04 11:47:21;;;;;;;0.77;0.70;;;24.30;91.50;;;;;;4950569;28;20491;-67
2022/07/04 11:49:51;;;;;;;0.90;0.90;;;24.20;92.00;;;;;;4944642;29;20481;-68
2022/07/04 11:52:20;;;;;;;0.50;0.50;;;24.60;92.30;;;;;;4951936;29;20512;-67
2022/07/04 11:54:48;;;;;;;0.53;0.53;;;25.00;91.30;;;;;;4952956;28;20472;-67
2022/07/04 11:57:18;;;;;;;0.80;0.80;;;25.10;91.20;;;;;;4952323;29;20468;-67
2022/07/04 11:59:54;;;;;;;1.40;1.30;;;25.10;90.30;;;;;;4951884;29;20468;-67
2022/07/04 12:02:21;;;;;;;0.57;0.57;;;25.00;90.40;;;;;;4952182;29;20467;-67
2022/07/04 12:04:49;;;;;;;1.13;0.63;;;24.90;90.50;;;;;;4952416;29;20464;-67
2022/07/04 12:07:17;;;;;;;0.80;0.80;;;24.80;91.10;;;;;;4951328;29;20491;-67
2022/07/04 12:09:45;;;;;;;1.33;1.07;;;24.70;91.00;;;;;;4940958;29;20465;-66
2022/07/04 12:12:13;;;;;;;0.90;0.90;;;24.60;90.90;;;;;;4935160;29;20556;-67
2022/07/04 12:14:40;;;;;;;1.30;0.77;;;24.60;91.00;;;;;;4952203;28;20869;-68
2022/07/04 12:17:18;;;;;;;0.80;0.80;;;24.70;90.80;;;;;;4950028;29;20495;-68
2022/07/04 12:19:54;;;;;;;1.80;0.80;;;24.70;90.60;;;;;;4945053;29;20818;-68
2022/07/04 12:22:32;;;;;;;0.80;0.80;;;24.70;91.00;;;;;;4952544;29;20832;-67
2022/07/04 12:25:00;;;;;;;0.70;0.60;;;24.80;90.30;;;;;;4950786;28;20544;-67
2022/07/04 12:27:28;;;;;;;0.70;0.70;;;24.80;90.20;;;;;;4951314;28;20472;-67
2022/07/04 12:29:55;;;;;;;1.07;0.70;;;24.90;90.50;;;;;;4943718;29;20472;-68
2022/07/04 12:32:22;;;;;;;0.90;0.90;;;24.90;90.00;;;;;;4952025;28;20849;-67
2022/07/04 12:34:49;;;;;;;0.93;0.93;;;24.80;90.40;;;;;;4952512;29;20983;-68
2022/07/04 12:37:18;;;;;;;0.73;0.73;;;24.80;90.50;;;;;;4951144;29;20476;-68
2022/07/04 12:39:46;;;;;;;1.90;0.87;;;24.80;90.40;;;;;;4950979;29;20503;-68
2022/07/04 12:42:14;;;;;;;0.87;0.87;;;25.00;90.80;;;;;;4951622;29;20885;-68
2022/07/04 12:44:42;;;;;;;0.60;0.60;;;24.90;90.20;;;;;;4952154;29;20477;-68
2022/07/04 12:47:10;;;;;;;1.03;1.03;;;24.70;90.40;;;;;;4950598;29;20472;-68
2022/07/04 12:49:37;;;;;;;1.47;0.70;;;24.60;91.00;;;;;;4950529;29;20950;-67
2022/07/04 12:52:09;;;;;;;0.50;0.50;;;24.70;91.00;;;;;;4949848;29;20496;-67
2022/07/04 12:54:38;;;;;;;0.83;0.80;;;25.00;91.00;;;;;;4933591;29;20476;-67
2022/07/04 12:57:07;;;;;;;0.70;0.70;;;25.30;90.30;;;;;;4944812;28;20499;-68
2022/07/04 12:59:34;;;;;;;2.00;1.30;;;25.40;88.60;;;;;;4950604;29;20457;-67
2022/07/04 13:02:01;;;;;;;0.70;0.70;;;25.40;88.70;;;;;;4951313;28;20536;-67
2022/07/04 13:04:28;;;;;;;1.90;0.77;;;25.50;89.10;;;;;;4951918;29;20787;-67
2022/07/04 13:06:55;;;;;;;0.70;0.70;;;25.60;89.10;;;;;;4951307;29;20579;-67
2022/07/04 13:09:22;;;;;;;0.60;0.60;;;25.80;88.60;;;;;;4951093;29;20476;-67
2022/07/04 13:14:35;;;;;;;0.87;0.87;;;25.90;89.30;;;;;;4951346;29;20524;-67
2022/07/04 13:17:01;;;;;;;2.00;1.03;;;26.00;87.90;;;;;;4950830;29;20469;-68
2022/07/04 13:19:28;;;;;;;0.70;0.70;;;26.00;89.70;;;;;;4949840;29;20475;-67
2022/07/04 13:21:55;;;;;;;0.60;0.60;;;26.00;88.50;;;;;;4947033;29;20475;-68
2022/07/04 13:24:22;;;;;;;1.03;0.97;;;25.90;88.60;;;;;;4951981;29;20555;-68
2022/07/04 13:26:49;;;;;;;10.10;1.40;;;25.90;86.80;;;;;;4951853;28;20492;-68
2022/07/04 13:29:17;;;;;;;0.70;0.70;;;25.80;86.70;;;;;;4950675;28;20531;-67
2022/07/04 13:31:43;;;;;;;0.97;0.60;;;26.00;87.20;;;;;;4932470;29;20841;-68
2022/07/04 13:34:10;;;;;;;0.90;0.90;;;26.00;87.50;;;;;;4941891;29;20476;-68
2022/07/04 13:36:37;;;;;;;1.20;1.20;;;25.60;87.30;;;;;;4936410;29;20486;-68
2022/07/04 13:39:04;;;;;;;0.70;0.70;;;25.50;89.50;;;;;;4951096;29;20499;-68
2022/07/04 13:41:32;;;;;;;1.90;0.93;;;25.60;88.60;;;;;;4933434;29;20521;-67
2022/07/04 13:44:00;;;;;;;0.80;0.80;;;25.60;85.00;;;;;;4939936;29;20488;-68
2022/07/04 13:46:28;;;;;;;0.67;0.67;;;25.60;84.50;;;;;;4948610;29;20480;-67
2022/07/04 13:48:55;;;;;;;1.53;1.10;;;25.70;85.50;;;;;;4951003;28;20472;-67
2022/07/04 13:51:22;;;;;;;1.33;1.20;;;25.90;86.20;;;;;;4938182;29;21001;-68
2022/07/04 13:53:48;;;;;;;1.53;0.77;;;25.80;85.30;;;;;;4946434;29;20496;-68
2022/07/04 13:56:18;;;;;;;1.73;1.20;;;25.70;85.20;;;;;;4946361;29;20485;-67
2022/07/04 13:58:46;;;;;;;0.80;0.80;;;25.50;85.10;;;;;;4954027;29;20471;-67
2022/07/04 14:01:13;;;;;;;1.00;0.90;;;25.50;84.50;;;;;;4952034;29;20516;-67
2022/07/04 14:03:42;;;;;;;0.83;0.83;;;25.60;86.00;;;;;;4961369;28;20460;-67
2022/07/04 14:06:09;;;;;;;1.10;1.10;;;26.00;85.70;;;;;;4954708;29;20484;-67
2022/07/04 14:08:36;;;;;;;1.00;1.00;;;26.40;84.60;;;;;;4952345;29;20480;-67
2022/07/04 14:11:03;;;;;;;1.53;1.43;;;26.50;86.20;;;;;;4954124;29;20468;-67
2022/07/04 14:13:30;;;;;;;1.10;1.10;;;26.40;84.60;;;;;;4954194;29;20492;-67
2022/07/04 14:15:56;;;;;;;0.97;0.90;;;26.20;84.70;;;;;;4953937;28;20595;-66
2022/07/04 14:18:23;;;;;;;1.00;1.00;;;25.90;84.70;;;;;;4953154;29;20473;-66
2022/07/04 14:20:51;;;;;;;1.20;1.17;;;25.80;84.80;;;;;;4953852;29;20480;-66
2022/07/04 14:23:39;;;;;;;1.33;1.00;;;25.70;85.60;;;;;;4954523;29;20457;-67
2022/07/04 14:26:06;;;;;;;2.37;2.27;;;25.50;86.10;;;;;;4953539;28;20488;-67
2022/07/04 14:28:34;;;;;;;1.03;1.03;;;25.30;87.00;;;;;;4953544;28;20480;-67
2022/07/04 14:31:00;;;;;;;1.10;1.10;;;25.20;86.20;;;;;;4945216;29;20974;-67
2022/07/04 14:33:27;;;;;;;0.87;0.87;;;25.20;86.70;;;;;;4953740;29;20488;-67
2022/07/04 14:35:55;;;;;;;0.90;0.90;;;25.10;87.50;;;;;;4951991;28;20492;-67
2022/07/04 14:38:22;;;;;;;1.63;1.20;;;25.20;87.70;;;;;;4952824;29;20480;-67
2022/07/04 14:40:49;;;;;;;1.00;1.00;;;25.00;87.10;;;;;;4953486;29;20802;-66
2022/07/04 14:43:18;;;;;;;2.33;1.07;;;24.90;88.00;;;;;;4953844;29;20467;-67
2022/07/04 14:45:45;;;;;;;0.80;0.80;;;25.10;87.80;;;;;;4953131;28;20488;-67
2022/07/04 14:48:11;;;;;;;1.40;0.87;;;25.40;88.50;;;;;;4952716;29;20468;-67
2022/07/04 14:50:38;;;;;;;1.83;1.07;;;25.70;87.70;;;;;;4949735;29;20909;-66
2022/07/04 14:53:06;;;;;;;1.43;0.93;;;25.80;87.00;;;;;;4952937;29;20495;-67
2022/07/04 14:55:33;;;;;;;0.80;0.80;;;25.90;86.70;;;;;;4952652;29;20492;-66
2022/07/04 14:57:59;;;;;;;0.90;0.87;;;26.00;86.20;;;;;;4951665;29;20473;-67
2022/07/04 15:00:27;;;;;;;1.10;1.00;;;26.10;87.00;;;;;;4951513;28;20484;-66
2022/07/04 15:02:53;;;;;;;1.23;1.23;;;26.20;86.60;;;;;;4952496;28;20554;-66
2022/07/04 15:05:20;;;;;;;2.37;1.10;;;26.20;86.60;;;;;;4952974;28;20559;-66
2022/07/04 15:07:47;;;;;;;1.10;1.10;;;26.30;85.60;;;;;;4946420;29;20487;-66
2022/07/04 15:10:15;;;;;;;1.10;1.10;;;26.20;85.80;;;;;;4950950;28;20495;-66
2022/07/04 15:12:42;;;;;;;0.90;0.90;;;26.10;85.40;;;;;;4953177;29;20583;-66
2022/07/04 15:15:10;;;;;;;1.10;1.03;;;26.00;86.20;;;;;;4948297;28;20575;-66
2022/07/04 15:17:37;;;;;;;1.30;1.20;;;25.70;86.20;;;;;;4951131;28;20464;-66
2022/07/04 15:25:34;;;;;;;1.03;1.03;;;25.80;87.30;;;;;;4952541;28;20484;-66
2022/07/04 15:28:01;;;;;;;1.80;1.10;;;25.90;87.00;;;;;;4952121;29;20480;-66
2022/07/04 15:30:28;;;;;;;1.10;1.10;;;25.90;86.20;;;;;;4946959;29;20465;-67
2022/07/04 15:32:55;;;;;;;1.00;1.00;;;25.80;85.60;;;;;;4952395;29;20487;-66
2022/07/04 15:35:21;;;;;;;1.27;1.20;;;25.50;85.40;;;;;;4951833;29;20489;-66
2022/07/04 15:37:48;;;;;;;1.23;1.23;;;25.30;85.00;;;;;;4951667;29;20476;-66
2022/07/04 15:40:15;;;;;;;0.90;0.90;;;25.10;85.90;;;;;;4944851;28;20654;-66
2022/07/04 15:42:43;;;;;;;3.03;1.23;;;25.00;86.00;;;;;;4952520;29;20468;-67
2022/07/04 15:45:10;;;;;;;1.47;1.30;;;24.80;86.70;;;;;;4949739;29;20495;-67
2022/07/04 15:47:37;;;;;;;1.17;1.17;;;24.70;87.30;;;;;;4951146;29;20461;-67
2022/07/04 15:50:05;;;;;;;2.83;1.40;;;24.70;88.10;;;;;;4949954;28;20461;-67
2022/07/04 15:52:32;;;;;;;1.10;1.10;;;24.70;88.40;;;;;;4952732;29;20465;-67
2022/07/04 15:54:58;;;;;;;1.13;1.13;;;24.80;89.20;;;;;;4952236;29;20484;-66
2022/07/04 15:57:25;;;;;;;1.50;1.50;;;24.90;88.20;;;;;;4952359;29;20465;-66
2022/07/04 15:59:54;;;;;;;1.10;1.00;;;24.90;88.70;;;;;;4951995;29;20464;-66
2022/07/04 16:02:21;;;;;;;1.40;1.33;;;24.90;89.30;;;;;;4951214;29;20476;-66
2022/07/04 16:04:47;;;;;;;1.87;1.87;;;24.80;88.60;;;;;;4950032;28;20476;-66
2022/07/04 16:07:15;;;;;;;1.07;1.00;;;24.80;89.60;;;;;;4952230;29;20468;-66
2022/07/04 16:09:42;;;;;;;1.23;1.10;;;25.00;90.00;;;;;;4952443;29;20846;-66
2022/07/04 16:12:08;;;;;;;1.17;1.17;;;24.90;89.10;;;;;;4951903;28;20804;-66
2022/07/04 16:14:35;;;;;;;1.40;1.40;;;24.80;89.60;;;;;;4949267;29;20500;-66
2022/07/04 16:17:04;;;;;;;3.63;1.23;;;24.80;89.70;;;;;;4974044;23;20472;-67
2022/07/04 16:19:30;;;;;;;1.70;1.40;;;25.00;90.80;;;;;;4948708;28;20465;-66
2022/07/04 16:21:57;;;;;;;1.50;1.50;;;25.30;90.20;;;;;;4951490;29;20797;-68
2022/07/04 16:24:25;;;;;;;1.27;1.20;;;25.40;89.40;;;;;;4946385;28;20467;-69
2022/07/04 16:26:52;;;;;;;1.27;1.17;;;25.30;88.90;;;;;;4951564;28;20468;-68
2022/07/04 16:29:18;;;;;;;1.70;1.70;;;25.40;90.10;;;;;;4946862;29;20973;-68
2022/07/04 16:31:45;;;;;;;1.70;1.70;;;25.50;90.40;;;;;;4935239;29;20458;-69
2022/07/04 16:34:13;;;;;;;1.50;1.50;;;25.30;90.30;;;;;;4946035;29;20496;-69
2022/07/04 16:36:40;;;;;;;1.40;1.40;;;25.00;91.00;;;;;;4951250;29;20838;-68
2022/07/04 16:39:07;;;;;;;2.73;1.50;;;24.80;91.10;;;;;;4939643;29;20480;-68
2022/07/04 16:41:34;;;;;;;1.10;1.10;;;24.70;91.60;;;;;;4935522;29;20472;-69
2022/07/04 16:44:00;;;;;;;1.13;1.13;;;24.50;91.80;;;;;;4940211;29;20465;-68
2022/07/04 16:46:27;;;;;;;1.50;1.50;;;24.40;92.20;;;;;;4946508;29;20478;-66
2022/07/04 16:48:54;;;;;;;1.43;1.33;;;24.30;92.60;;;;;;4942442;29;21004;-69
2022/07/04 16:51:22;;;;;;;1.30;1.30;;;24.20;93.10;;;;;;4938503;29;20472;-69
2022/07/04 16:53:49;;;;;;;1.37;1.37;;;24.10;93.20;;;;;;4937605;29;20484;-68
2022/07/04 16:56:15;;;;;;;1.37;1.37;;;24.10;93.40;;;;;;4948430;29;20492;-69
2022/07/04 16:58:43;;;;;;;2.50;1.10;;;24.00;93.70;;;;;;4946572;29;20838;-69
2022/07/04 17:01:11;;;;;;;1.20;1.20;;;24.00;93.80;;;;;;4933127;29;20462;-69
2022/07/04 17:03:38;;;;;;;2.23;1.30;;;24.00;93.90;;;;;;4944883;28;20495;-68
2022/07/04 17:06:04;;;;;;;1.30;1.30;;;24.30;93.80;;;;;;4949277;29;20461;-68
2022/07/04 17:08:34;;;;;;;1.50;1.40;;;24.50;93.50;;;;;;4949686;28;20484;-67
2022/07/04 17:11:01;;;;;;;2.07;1.97;;;24.60;93.10;;;;;;4949594;29;20468;-68
2022/07/04 17:13:27;;;;;;;1.83;1.83;;;24.50;93.10;;;;;;4947457;28;20492;-67
2022/07/04 17:15:54;;;;;;;1.80;1.67;;;24.50;93.00;;;;;;4950467;29;20461;-68
2022/07/04 17:18:21;;;;;;;1.90;1.33;;;24.40;93.20;;;;;;4952154;28;20496;-68
2022/07/04 17:20:48;;;;;;;1.60;1.60;;;24.20;93.10;;;;;;4951588;29;20464;-66